createdAt,value
2016-05-06T00:00:18.460Z,0
2016-05-06T00:01:18.494Z,0
2016-05-06T00:02:18.527Z,0
2016-05-06T00:03:18.406Z,0
2016-05-06T00:04:18.612Z,0
2016-05-06T00:05:18.630Z,0
2016-05-06T00:06:18.663Z,0
2016-05-06T00:07:18.713Z,0
2016-05-06T00:08:18.746Z,0
2016-05-06T00:09:18.781Z,0
2016-05-06T00:10:19.065Z,0
2016-05-06T00:11:18.849Z,0
2016-05-06T00:12:18.554Z,0
2016-05-06T00:13:18.777Z,0
2016-05-06T00:14:18.794Z,0
2016-05-06T00:15:18.985Z,0
2016-05-06T00:16:18.862Z,0
2016-05-06T00:17:19.052Z,0
2016-05-06T00:18:18.789Z,0
2016-05-06T00:19:19.136Z,0
2016-05-06T00:20:19.170Z,0
2016-05-06T00:21:19.196Z,0
2016-05-06T00:22:19.247Z,0
2016-05-06T00:23:19.265Z,0
2016-05-06T00:24:19.299Z,0
2016-05-06T00:25:19.192Z,0
2016-05-06T00:26:19.210Z,0
2016-05-06T00:27:19.401Z,0
2016-05-06T00:28:19.435Z,0
2016-05-06T00:29:19.468Z,0
2016-05-06T00:30:19.502Z,0
2016-05-06T00:31:19.396Z,0
2016-05-06T00:32:19.429Z,0
2016-05-06T00:33:19.623Z,0
2016-05-06T00:34:19.656Z,0
2016-05-06T00:35:19.375Z,0
2016-05-06T00:36:19.582Z,0
2016-05-06T00:37:19.758Z,0
2016-05-06T00:38:19.792Z,0
2016-05-06T00:39:19.811Z,0
2016-05-06T00:40:20.313Z,0
2016-05-06T00:41:19.719Z,0
2016-05-06T00:42:19.772Z,0
2016-05-06T00:43:19.962Z,0
2016-05-06T00:44:19.681Z,0
2016-05-06T00:45:19.889Z,0
2016-05-06T00:46:20.063Z,0
2016-05-06T00:47:20.097Z,0
2016-05-06T00:48:20.132Z,0
2016-05-06T00:49:20.166Z,0
2016-05-06T00:50:20.058Z,0
2016-05-06T00:51:20.249Z,0
2016-05-06T00:52:19.952Z,0
2016-05-06T00:53:20.161Z,0
2016-05-06T00:54:20.194Z,0
2016-05-06T00:55:20.229Z,0
2016-05-06T00:56:20.263Z,0
2016-05-06T00:57:20.452Z,0
2016-05-06T00:58:20.487Z,0
2016-05-06T00:59:20.520Z,0
2016-05-06T01:00:20.555Z,0
2016-05-06T01:01:20.292Z,0
2016-05-06T01:02:20.466Z,0
2016-05-06T01:03:20.500Z,0
2016-05-06T01:04:20.550Z,0
2016-05-06T01:05:20.724Z,0
2016-05-06T01:06:20.462Z,0
2016-05-06T01:07:20.808Z,0
2016-05-06T01:08:20.842Z,0
2016-05-06T01:09:20.720Z,0
2016-05-06T01:10:20.909Z,0
2016-05-06T01:11:20.944Z,0
2016-05-06T01:12:20.977Z,0
2016-05-06T01:13:20.996Z,0
2016-05-06T01:14:21.045Z,0
2016-05-06T01:15:20.908Z,0
2016-05-06T01:16:21.097Z,0
2016-05-06T01:17:20.991Z,0
2016-05-06T01:18:21.181Z,0
2016-05-06T01:19:21.231Z,0
2016-05-06T01:20:21.108Z,0
2016-05-06T01:21:21.110Z,0
2016-05-06T01:22:21.161Z,0
2016-05-06T01:23:21.351Z,0
2016-05-06T01:24:21.385Z,0
2016-05-06T01:25:21.418Z,0
2016-05-06T01:26:21.453Z,0
2016-05-06T01:27:21.690Z,0
2016-05-06T01:28:21.521Z,0
2016-05-06T01:29:21.554Z,0
2016-05-06T01:30:21.588Z,0
2016-05-06T01:31:21.779Z,0
2016-05-06T01:32:21.500Z,0
2016-05-06T01:33:21.706Z,0
2016-05-06T01:34:21.723Z,0
2016-05-06T01:35:21.759Z,0
2016-05-06T01:36:21.636Z,0
2016-05-06T01:37:21.825Z,0
2016-05-06T01:38:21.703Z,0
2016-05-06T01:39:21.582Z,0
2016-05-06T01:40:21.787Z,0
2016-05-06T01:41:21.961Z,0
2016-05-06T01:42:22.012Z,0
2016-05-06T01:43:22.045Z,0
2016-05-06T01:44:21.923Z,0
2016-05-06T01:45:22.113Z,0
2016-05-06T01:46:22.131Z,0
2016-05-06T01:47:22.166Z,0
2016-05-06T01:48:22.215Z,0
2016-05-06T01:49:22.249Z,0
2016-05-06T01:50:36.438Z,0
2016-05-06T01:51:22.302Z,0
2016-05-06T01:52:22.367Z,0
2016-05-06T01:53:22.400Z,0
2016-05-06T01:54:22.418Z,0
2016-05-06T01:55:22.328Z,0
2016-05-06T01:56:22.486Z,0
2016-05-06T01:57:22.364Z,0
2016-05-06T01:58:22.398Z,0
2016-05-06T01:59:22.604Z,0
2016-05-06T02:00:22.482Z,0
2016-05-06T02:01:22.656Z,0
2016-05-06T02:02:22.549Z,0
2016-05-06T02:03:22.723Z,0
2016-05-06T02:04:22.758Z,0
2016-05-06T02:05:22.792Z,0
2016-05-06T02:06:22.842Z,0
2016-05-06T02:07:22.890Z,0
2016-05-06T02:08:22.893Z,0
2016-05-06T02:09:22.928Z,0
2016-05-06T02:10:22.820Z,0
2016-05-06T02:11:22.683Z,0
2016-05-06T02:12:23.045Z,0
2016-05-06T02:13:22.939Z,0
2016-05-06T02:14:23.097Z,0
2016-05-06T02:15:23.131Z,0
2016-05-06T02:16:23.025Z,0
2016-05-06T02:17:23.059Z,0
2016-05-06T02:18:23.264Z,0
2016-05-06T02:19:23.283Z,0
2016-05-06T02:20:23.145Z,0
2016-05-06T02:21:23.366Z,0
2016-05-06T02:22:23.385Z,0
2016-05-06T02:23:23.406Z,0
2016-05-06T02:24:23.440Z,0
2016-05-06T02:25:24.443Z,0
2016-05-06T02:26:23.524Z,0
2016-05-06T02:27:23.558Z,0
2016-05-06T02:28:23.420Z,0
2016-05-06T02:29:23.610Z,0
2016-05-06T02:30:23.660Z,0
2016-05-06T02:31:23.537Z,0
2016-05-06T02:32:23.571Z,0
2016-05-06T02:33:23.746Z,0
2016-05-06T02:34:23.795Z,0
2016-05-06T02:35:23.814Z,0
2016-05-06T02:36:23.879Z,0
2016-05-06T02:37:23.898Z,0
2016-05-06T02:38:23.931Z,0
2016-05-06T02:39:23.950Z,0
2016-05-06T02:40:23.858Z,0
2016-05-06T02:41:24.095Z,0
2016-05-06T02:42:23.895Z,0
2016-05-06T02:43:23.930Z,0
2016-05-06T02:44:24.135Z,0
2016-05-06T02:45:24.168Z,0
2016-05-06T02:46:24.203Z,0
2016-05-06T02:47:24.237Z,0
2016-05-06T02:48:24.270Z,0
2016-05-06T02:49:24.304Z,0
2016-05-06T02:50:24.324Z,0
2016-05-06T02:51:24.373Z,0
2016-05-06T02:52:24.406Z,0
2016-05-06T02:53:24.441Z,0
2016-05-06T02:54:24.473Z,0
2016-05-06T02:55:25.290Z,0
2016-05-06T02:56:24.542Z,0
2016-05-06T02:57:24.576Z,0
2016-05-06T02:58:24.439Z,0
2016-05-06T02:59:24.645Z,0
2016-05-06T03:00:24.678Z,0
2016-05-06T03:01:24.711Z,0
2016-05-06T03:02:24.746Z,0
2016-05-06T03:03:24.780Z,0
2016-05-06T03:04:24.673Z,0
2016-05-06T03:05:24.691Z,0
2016-05-06T03:06:24.881Z,0
2016-05-06T03:07:24.759Z,0
2016-05-06T03:08:24.949Z,0
2016-05-06T03:09:24.983Z,0
2016-05-06T03:10:24.861Z,0
2016-05-06T03:11:25.052Z,4
2016-05-06T03:12:24.929Z,4
2016-05-06T03:13:25.104Z,0
2016-05-06T03:14:25.152Z,0
2016-05-06T03:15:25.016Z,4
2016-05-06T03:16:25.205Z,4
2016-05-06T03:17:25.240Z,0
2016-05-06T03:18:25.304Z,4
2016-05-06T03:19:25.323Z,4
2016-05-06T03:20:25.357Z,4
2016-05-06T03:21:25.218Z,8
2016-05-06T03:22:25.409Z,4
2016-05-06T03:23:25.302Z,4
2016-05-06T03:24:25.352Z,4
2016-05-06T03:25:25.526Z,8
2016-05-06T03:26:25.264Z,8
2016-05-06T03:27:25.595Z,12
2016-05-06T03:28:25.628Z,12
2016-05-06T03:29:25.350Z,12
2016-05-06T03:30:25.696Z,16
2016-05-06T03:31:25.558Z,20
2016-05-06T03:32:25.780Z,20
2016-05-06T03:33:25.798Z,24
2016-05-06T03:34:25.816Z,28
2016-05-06T03:35:25.866Z,32
2016-05-06T03:36:25.884Z,36
2016-05-06T03:37:25.919Z,44
2016-05-06T03:38:25.967Z,52
2016-05-06T03:39:26.002Z,56
2016-05-06T03:40:25.864Z,64
2016-05-06T03:41:26.283Z,72
2016-05-06T03:42:25.955Z,80
2016-05-06T03:43:26.165Z,88
2016-05-06T03:44:26.166Z,96
2016-05-06T03:45:26.169Z,108
2016-05-06T03:46:26.219Z,116
2016-05-06T03:47:26.097Z,128
2016-05-06T03:48:25.974Z,136
2016-05-06T03:49:26.321Z,144
2016-05-06T03:50:26.354Z,160
2016-05-06T03:51:26.388Z,172
2016-05-06T03:52:26.422Z,192
2016-05-06T03:53:26.456Z,208
2016-05-06T03:54:26.475Z,228
2016-05-06T03:55:26.524Z,252
2016-05-06T03:56:26.621Z,272
2016-05-06T03:57:26.420Z,296
2016-05-06T03:58:26.470Z,312
2016-05-06T03:59:26.660Z,340
2016-05-06T04:00:26.694Z,364
2016-05-06T04:01:26.728Z,388
2016-05-06T04:02:26.761Z,416
2016-05-06T04:03:26.624Z,436
2016-05-06T04:04:26.658Z,464
2016-05-06T04:05:26.706Z,488
2016-05-06T04:06:26.898Z,512
2016-05-06T04:07:26.776Z,540
2016-05-06T04:08:26.950Z,568
2016-05-06T04:09:26.842Z,600
2016-05-06T04:10:26.878Z,628
2016-05-06T04:11:27.441Z,652
2016-05-06T04:12:27.101Z,680
2016-05-06T04:13:27.119Z,700
2016-05-06T04:14:27.013Z,720
2016-05-06T04:15:27.188Z,736
2016-05-06T04:16:27.236Z,756
2016-05-06T04:17:27.099Z,776
2016-05-06T04:18:27.132Z,800
2016-05-06T04:19:27.324Z,832
2016-05-06T04:20:27.201Z,864
2016-05-06T04:21:27.250Z,904
2016-05-06T04:22:27.424Z,940
2016-05-06T04:23:27.459Z,984
2016-05-06T04:24:27.337Z,1028
2016-05-06T04:25:27.526Z,1080
2016-05-06T04:26:27.263Z,1128
2016-05-06T04:27:27.595Z,1180
2016-05-06T04:28:27.629Z,1244
2016-05-06T04:29:27.678Z,1336
2016-05-06T04:30:27.681Z,1444
2016-05-06T04:31:27.746Z,1576
2016-05-06T04:32:27.765Z,1784
2016-05-06T04:33:27.486Z,2032
2016-05-06T04:34:27.676Z,2200
2016-05-06T04:35:27.695Z,2240
2016-05-06T04:36:27.900Z,2388
2016-05-06T04:37:27.762Z,2568
2016-05-06T04:38:27.967Z,2664
2016-05-06T04:39:28.002Z,2696
2016-05-06T04:40:27.880Z,2656
2016-05-06T04:41:28.148Z,2584
2016-05-06T04:42:27.947Z,2528
2016-05-06T04:43:28.153Z,2456
2016-05-06T04:44:28.172Z,2408
2016-05-06T04:45:28.189Z,2408
2016-05-06T04:46:28.239Z,2436
2016-05-06T04:47:28.305Z,2452
2016-05-06T04:48:28.308Z,2392
2016-05-06T04:49:28.185Z,2304
2016-05-06T04:50:28.375Z,2308
2016-05-06T04:51:28.409Z,2376
2016-05-06T04:52:28.130Z,2356
2016-05-06T04:53:28.321Z,2248
2016-05-06T04:54:28.043Z,2228
2016-05-06T04:55:28.545Z,2264
2016-05-06T04:56:28.594Z,2328
2016-05-06T04:57:28.629Z,2508
2016-05-06T04:58:28.662Z,2676
2016-05-06T04:59:28.681Z,2700
2016-05-06T05:00:28.714Z,2688
2016-05-06T05:01:28.765Z,2688
2016-05-06T05:02:28.782Z,2668
2016-05-06T05:03:28.816Z,2680
2016-05-06T05:04:28.866Z,2676
2016-05-06T05:05:28.884Z,2612
2016-05-06T05:06:28.793Z,2688
2016-05-06T05:07:28.967Z,2852
2016-05-06T05:08:28.987Z,2868
2016-05-06T05:09:29.020Z,2872
2016-05-06T05:10:29.077Z,2992
2016-05-06T05:11:29.173Z,3208
2016-05-06T05:12:29.254Z,3344
2016-05-06T05:13:29.336Z,3388
2016-05-06T05:14:29.417Z,3292
2016-05-06T05:15:29.327Z,3216
2016-05-06T05:16:29.363Z,3212
2016-05-06T05:17:29.414Z,3176
2016-05-06T05:18:29.636Z,3084
2016-05-06T05:19:29.671Z,2940
2016-05-06T05:20:29.748Z,2824
2016-05-06T05:21:29.788Z,2700
2016-05-06T05:22:29.657Z,2532
2016-05-06T05:23:29.868Z,2448
2016-05-06T05:24:29.893Z,2460
2016-05-06T05:25:29.931Z,2544
2016-05-06T05:26:29.952Z,2680
2016-05-06T05:27:30.003Z,2868
2016-05-06T05:28:30.056Z,3020
2016-05-06T05:29:30.076Z,3172
2016-05-06T05:30:29.955Z,3364
2016-05-06T05:31:30.162Z,3444
2016-05-06T05:32:30.196Z,3460
2016-05-06T05:33:30.231Z,3528
2016-05-06T05:34:30.281Z,3616
2016-05-06T05:35:29.973Z,3708
2016-05-06T05:36:30.334Z,3800
2016-05-06T05:37:30.213Z,3892
2016-05-06T05:38:30.247Z,3872
2016-05-06T05:39:30.282Z,3984
2016-05-06T05:40:30.316Z,4020
2016-05-06T05:41:30.600Z,3664
2016-05-06T05:42:30.540Z,3948
2016-05-06T05:43:30.574Z,3964
2016-05-06T05:44:30.608Z,4004
2016-05-06T05:45:30.641Z,4040
2016-05-06T05:46:30.676Z,4056
2016-05-06T05:47:30.725Z,4016
2016-05-06T05:48:30.744Z,4004
2016-05-06T05:49:30.621Z,4004
2016-05-06T05:50:30.671Z,3988
2016-05-06T05:51:30.720Z,4020
2016-05-06T05:52:30.895Z,4044
2016-05-06T05:53:30.913Z,4072
2016-05-06T05:54:30.963Z,4136
2016-05-06T05:55:30.996Z,4152
2016-05-06T05:56:31.031Z,4132
2016-05-06T05:57:31.049Z,4148
2016-05-06T05:58:31.098Z,4164
2016-05-06T05:59:31.164Z,4168
2016-05-06T06:00:31.682Z,4204
2016-05-06T06:01:31.044Z,4200
2016-05-06T06:02:31.078Z,4200
2016-05-06T06:03:31.268Z,4188
2016-05-06T06:04:31.161Z,4180
2016-05-06T06:05:31.336Z,4176
2016-05-06T06:06:31.386Z,4160
2016-05-06T06:07:31.264Z,4168
2016-05-06T06:08:31.453Z,4144
2016-05-06T06:09:31.722Z,4332
2016-05-06T06:10:31.521Z,4152
2016-05-06T06:11:31.774Z,4064
2016-05-06T06:12:31.589Z,4104
2016-05-06T06:13:31.624Z,4212
2016-05-06T06:14:31.673Z,4084
2016-05-06T06:15:31.691Z,4244
2016-05-06T06:16:31.724Z,4272
2016-05-06T06:17:31.619Z,4208
2016-05-06T06:18:31.793Z,4128
2016-05-06T06:19:31.671Z,4124
2016-05-06T06:20:31.564Z,3812
2016-05-06T06:21:31.941Z,3652
2016-05-06T06:22:31.788Z,3532
2016-05-06T06:23:31.978Z,3380
2016-05-06T06:24:31.888Z,3364
2016-05-06T06:25:31.906Z,3496
2016-05-06T06:26:32.174Z,3720
2016-05-06T06:27:32.114Z,3852
2016-05-06T06:28:32.148Z,3960
2016-05-06T06:29:32.197Z,3936
2016-05-06T06:30:32.076Z,4640
2016-05-06T06:31:32.265Z,4484
2016-05-06T06:32:32.314Z,4108
2016-05-06T06:33:32.334Z,3940
2016-05-06T06:34:32.367Z,3928
2016-05-06T06:35:32.416Z,3952
2016-05-06T06:36:32.451Z,3980
2016-05-06T06:37:32.313Z,4048
2016-05-06T06:38:32.347Z,4136
2016-05-06T06:39:32.537Z,4180
2016-05-06T06:40:32.602Z,4228
2016-05-06T06:41:33.433Z,4612
2016-05-06T06:42:32.497Z,5248
2016-05-06T06:43:32.688Z,4964
2016-05-06T06:44:32.722Z,4480
2016-05-06T06:45:32.756Z,4556
2016-05-06T06:46:32.806Z,4520
2016-05-06T06:47:32.683Z,4604
2016-05-06T06:48:32.718Z,4572
2016-05-06T06:49:32.907Z,4508
2016-05-06T06:50:32.941Z,4508
2016-05-06T06:51:32.819Z,4532
2016-05-06T06:52:33.010Z,4548
2016-05-06T06:53:33.043Z,4592
2016-05-06T06:55:34.298Z,4568
2016-05-06T06:56:33.832Z,4644
2016-05-06T06:57:47.382Z,4604
2016-05-06T06:58:33.072Z,4784
2016-05-06T06:59:33.263Z,4736
2016-05-06T07:00:33.140Z,4660
2016-05-06T07:01:33.346Z,4700
2016-05-06T07:02:33.724Z,4756
2016-05-06T07:03:33.414Z,4756
2016-05-06T07:04:33.431Z,4784
2016-05-06T07:05:33.466Z,4768
2016-05-06T07:06:33.516Z,4912
2016-05-06T07:07:33.394Z,4864
2016-05-06T07:08:33.427Z,5772
2016-05-06T07:09:33.446Z,5520
2016-05-06T07:10:33.511Z,5288
2016-05-06T07:11:34.372Z,4996
2016-05-06T07:12:33.719Z,4960
2016-05-06T07:13:33.613Z,4900
2016-05-06T07:14:33.802Z,4968
2016-05-06T07:15:33.836Z,4936
2016-05-06T07:16:33.714Z,5024
2016-05-06T07:17:33.749Z,5232
2016-05-06T07:18:33.939Z,5112
2016-05-06T07:19:33.972Z,5080
2016-05-06T07:20:34.022Z,5104
2016-05-06T07:21:33.899Z,5428
2016-05-06T07:22:34.074Z,5844
2016-05-06T07:23:34.176Z,5244
2016-05-06T07:24:34.162Z,5228
2016-05-06T07:25:34.056Z,5484
2016-05-06T07:26:33.934Z,7084
2016-05-06T07:27:34.124Z,7912
2016-05-06T07:28:34.314Z,5660
2016-05-06T07:29:34.348Z,5480
2016-05-06T07:30:34.070Z,5524
2016-05-06T07:31:34.417Z,5636
2016-05-06T07:32:34.451Z,5580
2016-05-06T07:33:34.328Z,5956
2016-05-06T07:34:34.517Z,7340
2016-05-06T07:35:34.552Z,8316
2016-05-06T07:36:34.601Z,9672
2016-05-06T07:37:34.635Z,15392
2016-05-06T07:38:34.685Z,23392
2016-05-06T07:39:34.703Z,19296
2016-05-06T07:40:34.581Z,26272
2016-05-06T07:41:35.036Z,20320
2016-05-06T07:42:34.664Z,10972
2016-05-06T07:43:34.699Z,14272
2016-05-06T07:44:34.888Z,16004
2016-05-06T07:45:34.766Z,18352
2016-05-06T07:46:34.972Z,31040
2016-05-06T07:47:35.005Z,46688
2016-05-06T07:48:35.056Z,57376
2016-05-06T07:49:35.074Z,60832
2016-05-06T07:50:35.107Z,65056
2016-05-06T07:51:35.157Z,60640
2016-05-06T07:52:35.035Z,54112
2016-05-06T07:53:35.256Z,52448
2016-05-06T07:54:35.274Z,56224
2016-05-06T07:55:35.152Z,59456
2016-05-06T07:56:35.390Z,59296
2016-05-06T07:57:35.392Z,55808
2016-05-06T07:58:35.443Z,50848
2016-05-06T07:59:35.320Z,45888
2016-05-06T08:00:35.509Z,43744
2016-05-06T08:01:35.418Z,43232
2016-05-06T08:02:35.593Z,49344
2016-05-06T08:03:35.627Z,53152
2016-05-06T08:04:35.505Z,55648
2016-05-06T08:05:35.726Z,54496
2016-05-06T08:06:35.604Z,56128
2016-05-06T08:07:35.794Z,59200
2016-05-06T08:08:35.844Z,64768
2016-05-06T08:09:35.722Z,75520
2016-05-06T08:10:35.942Z,83648
2016-05-06T08:11:36.164Z,89696
2016-05-06T08:12:36.010Z,92704
2016-05-06T08:13:36.061Z,88992
2016-05-06T08:14:36.094Z,80960
2016-05-06T08:15:35.972Z,73952
2016-05-06T08:16:36.037Z,68416
2016-05-06T08:17:36.227Z,71712
2016-05-06T08:18:36.277Z,74944
2016-05-06T08:19:36.310Z,76608
2016-05-06T08:20:36.219Z,76704
2016-05-06T08:21:36.254Z,72896
2016-05-06T08:22:36.147Z,67488
2016-05-06T08:23:36.337Z,62816
2016-05-06T08:24:36.543Z,60864
2016-05-06T08:25:36.593Z,61248
2016-05-06T08:26:36.892Z,63328
2016-05-06T08:27:36.520Z,64864
2016-05-06T08:28:36.726Z,63712
2016-05-06T08:29:36.759Z,60256
2016-05-06T08:30:36.809Z,57312
2016-05-06T08:31:36.859Z,57056
2016-05-06T08:32:36.909Z,61728
2016-05-06T08:33:36.942Z,66208
2016-05-06T08:34:36.836Z,67968
2016-05-06T08:35:37.073Z,73248
2016-05-06T08:36:36.934Z,71808
2016-05-06T08:37:37.125Z,64544
2016-05-06T08:38:37.017Z,58240
2016-05-06T08:39:39.100Z,58112
2016-05-06T08:40:37.273Z,64896
2016-05-06T08:41:37.183Z,73568
2016-05-06T08:42:37.357Z,78496
2016-05-06T08:43:37.250Z,77664
2016-05-06T08:44:37.456Z,71520
2016-05-06T08:45:37.349Z,61472
2016-05-06T08:46:37.555Z,51936
2016-05-06T08:47:37.589Z,49760
2016-05-06T08:48:37.638Z,56224
2016-05-06T08:49:37.532Z,71200
2016-05-06T08:50:37.722Z,78528
2016-05-06T08:51:37.787Z,46496
2016-05-06T08:52:37.666Z,22624
2016-05-06T08:53:37.871Z,13948
2016-05-06T08:54:37.936Z,16480
2016-05-06T08:55:37.813Z,17216
2016-05-06T08:56:38.488Z,14176
2016-05-06T08:57:38.069Z,13004
2016-05-06T08:58:38.119Z,9604
2016-05-06T08:59:38.137Z,11944
2016-05-06T09:00:38.218Z,14544
2016-05-06T09:01:38.236Z,17664
2016-05-06T09:02:38.271Z,10508
2016-05-06T09:03:38.335Z,15404
2016-05-06T09:04:38.260Z,13516
2016-05-06T09:05:38.434Z,7920
2016-05-06T09:06:38.297Z,9932
2016-05-06T09:07:38.549Z,12944
2016-05-06T09:08:38.411Z,15072
2016-05-06T09:09:38.445Z,23552
2016-05-06T09:10:38.495Z,36672
2016-05-06T09:11:38.529Z,39840
2016-05-06T09:12:38.734Z,48352
2016-05-06T09:13:38.784Z,49920
2016-05-06T09:14:38.818Z,42784
2016-05-06T09:15:38.696Z,38464
2016-05-06T09:16:38.902Z,39232
2016-05-06T09:17:38.936Z,45536
2016-05-06T09:18:38.985Z,54048
2016-05-06T09:19:39.035Z,61888
2016-05-06T09:20:39.099Z,68736
2016-05-06T09:21:39.119Z,71072
2016-05-06T09:22:39.168Z,65760
2016-05-06T09:23:39.060Z,59808
2016-05-06T09:24:39.111Z,53120
2016-05-06T09:25:39.145Z,44768
2016-05-06T09:26:39.351Z,43072
2016-05-06T09:27:39.385Z,47296
2016-05-06T09:28:39.418Z,56736
2016-05-06T09:29:39.468Z,66944
2016-05-06T09:30:39.361Z,75936
2016-05-06T09:31:39.567Z,79456
2016-05-06T09:32:39.617Z,74496
2016-05-06T09:33:39.666Z,64640
2016-05-06T09:34:39.701Z,58048
2016-05-06T09:35:39.765Z,49248
2016-05-06T09:36:39.659Z,47968
2016-05-06T09:37:39.849Z,50496
2016-05-06T09:38:39.898Z,54080
2016-05-06T09:39:39.948Z,64096
2016-05-06T09:40:39.982Z,73760
2016-05-06T09:41:39.891Z,82848
2016-05-06T09:42:40.081Z,90464
2016-05-06T09:43:40.131Z,87424
2016-05-06T09:44:40.181Z,80672
2016-05-06T09:45:40.089Z,70720
2016-05-06T09:46:40.108Z,60960
2016-05-06T09:47:40.314Z,53600
2016-05-06T09:48:40.204Z,51648
2016-05-06T09:49:40.412Z,56160
2016-05-06T09:50:40.130Z,64832
2016-05-06T09:51:40.355Z,76288
2016-05-06T09:52:40.405Z,86336
2016-05-06T09:53:40.439Z,92160
2016-05-06T09:54:40.644Z,92800
2016-05-06T09:55:40.710Z,89056
2016-05-06T09:56:40.744Z,81440
2016-05-06T09:57:40.793Z,75008
2016-05-06T09:58:40.827Z,70016
2016-05-06T09:59:40.892Z,66880
2016-05-06T10:00:40.771Z,63584
2016-05-06T10:01:40.976Z,66336
2016-05-06T10:02:40.728Z,50048
2016-05-06T10:03:40.935Z,42144
2016-05-06T10:04:41.140Z,76608
2016-05-06T10:05:41.220Z,86208
2016-05-06T10:06:41.240Z,99200
2016-05-06T10:07:41.273Z,106240
2016-05-06T10:08:41.354Z,108448
2016-05-06T10:09:41.388Z,108736
2016-05-06T10:10:41.281Z,105312
2016-05-06T10:11:42.597Z,99232
2016-05-06T10:12:41.381Z,90560
2016-05-06T10:13:41.415Z,82752
2016-05-06T10:14:41.620Z,78944
2016-05-06T10:15:41.670Z,77024
2016-05-06T10:16:41.561Z,79552
2016-05-06T10:17:41.769Z,81376
2016-05-06T10:18:41.819Z,84832
2016-05-06T10:19:41.868Z,85248
2016-05-06T10:20:41.618Z,82464
2016-05-06T10:21:41.983Z,82304
2016-05-06T10:22:42.017Z,92000
2016-05-06T10:23:41.925Z,98400
2016-05-06T10:24:42.115Z,105472
2016-05-06T10:25:42.181Z,108384
2016-05-06T10:26:42.090Z,100992
2016-05-06T10:27:42.265Z,96672
2016-05-06T10:28:42.143Z,87232
2016-05-06T10:29:42.363Z,82592
2016-05-06T10:30:42.444Z,77952
2016-05-06T10:31:42.463Z,85632
2016-05-06T10:32:42.354Z,90176
2016-05-06T10:33:42.560Z,92288
2016-05-06T10:34:42.609Z,93696
2016-05-06T10:35:42.674Z,93344
2016-05-06T10:36:42.707Z,91040
2016-05-06T10:37:42.773Z,91456
2016-05-06T10:38:42.807Z,91360
2016-05-06T10:39:42.700Z,86688
2016-05-06T10:40:42.765Z,81760
2016-05-06T10:41:42.815Z,65152
2016-05-06T10:42:43.021Z,68768
2016-05-06T10:43:43.055Z,63552
2016-05-06T10:44:42.948Z,62880
2016-05-06T10:45:43.170Z,54656
2016-05-06T10:46:43.219Z,47648
2016-05-06T10:47:43.269Z,43072
2016-05-06T10:48:43.303Z,42816
2016-05-06T10:49:43.211Z,50528
2016-05-06T10:50:43.637Z,64224
2016-05-06T10:51:43.295Z,79936
2016-05-06T10:52:43.516Z,93056
2016-05-06T10:53:43.410Z,102880
2016-05-06T10:54:43.600Z,101984
2016-05-06T10:55:43.666Z,113088
2016-05-06T10:56:43.794Z,123264
2016-05-06T10:57:43.780Z,124512
2016-05-06T10:58:43.814Z,119712
2016-05-06T10:59:43.863Z,110464
2016-05-06T11:00:43.914Z,95904
2016-05-06T11:01:43.946Z,84224
2016-05-06T11:02:43.857Z,74816
2016-05-06T11:03:44.062Z,73856
2016-05-06T11:04:43.955Z,75776
2016-05-06T11:05:44.160Z,72064
2016-05-06T11:06:44.210Z,61920
2016-05-06T11:07:44.260Z,50944
2016-05-06T11:08:44.326Z,45728
2016-05-06T11:09:44.390Z,50112
2016-05-06T11:10:44.424Z,63808
2016-05-06T11:11:45.631Z,78976
2016-05-06T11:12:44.524Z,94752
2016-05-06T11:13:44.573Z,107904
2016-05-06T11:14:44.482Z,115584
2016-05-06T11:15:44.517Z,114784
2016-05-06T11:16:44.565Z,106944
2016-05-06T11:17:44.787Z,99360
2016-05-06T11:18:44.837Z,95168
2016-05-06T11:19:44.886Z,95008
2016-05-06T11:20:44.780Z,98688
2016-05-06T11:21:44.845Z,103552
2016-05-06T11:22:45.067Z,105056
2016-05-06T11:23:45.084Z,100288
2016-05-06T11:24:45.149Z,95264
2016-05-06T11:25:45.200Z,91744
2016-05-06T11:26:45.311Z,90336
2016-05-06T11:27:45.299Z,94496
2016-05-06T11:28:45.364Z,94816
2016-05-06T11:29:45.413Z,90784
2016-05-06T11:30:45.322Z,88768
2016-05-06T11:31:45.513Z,87552
2016-05-06T11:32:45.562Z,88512
2016-05-06T11:33:45.611Z,93024
2016-05-06T11:34:45.521Z,97056
2016-05-06T11:35:45.570Z,104448
2016-05-06T11:36:45.777Z,113376
2016-05-06T11:37:45.669Z,117248
2016-05-06T11:38:45.874Z,119552
2016-05-06T11:39:45.941Z,120768
2016-05-06T11:40:45.521Z,123200
2016-05-06T11:41:46.040Z,125600
2016-05-06T11:42:46.120Z,130560
2016-05-06T11:43:45.857Z,132544
2016-05-06T11:44:46.188Z,133408
2016-05-06T11:45:46.097Z,90880
2016-05-06T11:46:46.146Z,104672
2016-05-06T11:47:46.353Z,97600
2016-05-06T11:48:46.245Z,107840
2016-05-06T11:49:46.326Z,96576
2016-05-06T11:50:46.345Z,99200
2016-05-06T11:51:46.410Z,96736
2016-05-06T11:52:46.616Z,101440
2016-05-06T11:53:46.665Z,102048
2016-05-06T11:54:46.715Z,95104
2016-05-06T11:55:46.624Z,84064
2016-05-06T11:56:46.830Z,69024
2016-05-06T11:57:46.879Z,69504
2016-05-06T11:58:46.945Z,83136
2016-05-06T11:59:46.822Z,86208
2016-05-06T12:00:46.887Z,88736
2016-05-06T12:01:47.094Z,88320
2016-05-06T12:02:47.018Z,85920
2016-05-06T12:03:47.208Z,83264
2016-05-06T12:04:47.241Z,85056
2016-05-06T12:05:47.292Z,84352
2016-05-06T12:06:47.200Z,87904
2016-05-06T12:07:47.421Z,91712
2016-05-06T12:08:47.300Z,94560
2016-05-06T12:09:47.349Z,92640
2016-05-06T12:10:47.586Z,92256
2016-05-06T12:11:47.807Z,91552
2016-05-06T12:12:47.670Z,94048
2016-05-06T12:13:47.719Z,96192
2016-05-06T12:14:47.768Z,100224
2016-05-06T12:15:47.693Z,102176
2016-05-06T12:16:47.898Z,101760
2016-05-06T12:17:47.777Z,101088
2016-05-06T12:18:48.029Z,101056
2016-05-06T12:19:47.892Z,105184
2016-05-06T12:20:48.098Z,108992
2016-05-06T12:21:48.162Z,112192
2016-05-06T12:22:48.212Z,118720
2016-05-06T12:23:48.106Z,126752
2016-05-06T12:24:48.155Z,133344
2016-05-06T12:25:48.376Z,135552
2016-05-06T12:26:48.458Z,127840
2016-05-06T12:27:48.320Z,116672
2016-05-06T12:28:48.525Z,111808
2016-05-06T12:29:48.574Z,113920
2016-05-06T12:30:48.328Z,83264
2016-05-06T12:31:48.533Z,133344
2016-05-06T12:32:48.770Z,135424
2016-05-06T12:33:48.820Z,129568
2016-05-06T12:34:48.854Z,119872
2016-05-06T12:35:48.903Z,108896
2016-05-06T12:36:48.952Z,101920
2016-05-06T12:37:49.019Z,63296
2016-05-06T12:38:49.068Z,100864
2016-05-06T12:39:49.117Z,103392
2016-05-06T12:40:49.167Z,14060
2016-05-06T12:41:49.091Z,17692
2016-05-06T12:42:49.281Z,17852
2016-05-06T12:43:49.347Z,27552
2016-05-06T12:44:49.396Z,19968
2016-05-06T12:45:49.555Z,23232
2016-05-06T12:46:49.511Z,26496
2016-05-06T12:47:49.248Z,29632
2016-05-06T12:48:49.595Z,93280
2016-05-06T12:49:49.488Z,96352
2016-05-06T12:50:49.710Z,92416
2016-05-06T12:51:49.759Z,92832
2016-05-06T12:52:49.637Z,89696
2016-05-06T12:53:49.858Z,87488
2016-05-06T12:54:55.486Z,92320
2016-05-06T12:55:49.973Z,97824
2016-05-06T12:56:50.272Z,97088
2016-05-06T12:57:50.072Z,92416
2016-05-06T12:58:50.122Z,87552
2016-05-06T12:59:50.172Z,88320
2016-05-06T13:00:50.220Z,84864
2016-05-06T13:01:50.286Z,95648
2016-05-06T13:02:50.180Z,92224
2016-05-06T13:03:50.228Z,89856
2016-05-06T13:04:50.481Z,82784
2016-05-06T13:05:51.188Z,81504
2016-05-06T13:06:50.533Z,81856
2016-05-06T13:07:52.583Z,83808
2016-05-06T13:08:54.680Z,84704
2016-05-06T13:09:50.744Z,87584
2016-05-06T13:10:50.747Z,81760
2016-05-06T13:11:50.532Z,78048
2016-05-06T13:12:50.534Z,73984
2016-05-06T13:13:50.896Z,71360
2016-05-06T13:14:50.962Z,69536
2016-05-06T13:15:51.011Z,72032
2016-05-06T13:16:50.904Z,72960
2016-05-06T13:17:51.110Z,72128
2016-05-06T13:18:51.019Z,73920
2016-05-06T13:19:51.226Z,71584
2016-05-06T13:20:51.290Z,74208
2016-05-06T13:21:51.527Z,68192
2016-05-06T13:22:51.374Z,72640
2016-05-06T13:23:51.283Z,74752
2016-05-06T13:24:51.489Z,74656
2016-05-06T13:25:51.537Z,69120
2016-05-06T13:26:52.447Z,37888
2016-05-06T13:27:51.653Z,49696
2016-05-06T13:28:51.703Z,24160
2016-05-06T13:29:51.611Z,23904